sensor_id;sensor_type;location;lat;lon;timestamp;P1;durP1;ratioP1;P2;durP2;ratioP2
15307;SDS011;7755;52.208;6.964;2022-12-29T00:02:49;2.97;;;2.77;;
15307;SDS011;7755;52.208;6.964;2022-12-29T00:06:52;2.53;;;2.43;;
15307;SDS011;7755;52.208;6.964;2022-12-29T00:10:56;2.30;;;2.20;;
15307;SDS011;7755;52.208;6.964;2022-12-29T00:14:59;2.27;;;2.17;;
15307;SDS011;7755;52.208;6.964;2022-12-29T00:19:21;2.87;;;2.43;;
15307;SDS011;7755;52.208;6.964;2022-12-29T00:23:42;2.77;;;2.57;;
15307;SDS011;7755;52.208;6.964;2022-12-29T00:28:02;2.53;;;2.33;;
15307;SDS011;7755;52.208;6.964;2022-12-29T00:32:29;2.43;;;2.33;;
15307;SDS011;7755;52.208;6.964;2022-12-29T00:36:52;2.60;;;2.40;;
15307;SDS011;7755;52.208;6.964;2022-12-29T00:40:54;3.03;;;2.83;;
15307;SDS011;7755;52.208;6.964;2022-12-29T00:45:15;2.60;;;2.40;;
15307;SDS011;7755;52.208;6.964;2022-12-29T00:49:18;2.40;;;2.30;;
15307;SDS011;7755;52.208;6.964;2022-12-29T00:53:36;2.67;;;2.47;;
15307;SDS011;7755;52.208;6.964;2022-12-29T00:57:39;2.80;;;2.60;;
15307;SDS011;7755;52.208;6.964;2022-12-29T01:01:42;2.27;;;2.17;;
15307;SDS011;7755;52.208;6.964;2022-12-29T01:05:45;2.33;;;2.23;;
15307;SDS011;7755;52.208;6.964;2022-12-29T01:09:50;2.50;;;2.30;;
15307;SDS011;7755;52.208;6.964;2022-12-29T01:14:12;2.70;;;2.50;;
15307;SDS011;7755;52.208;6.964;2022-12-29T01:18:14;2.63;;;2.43;;
15307;SDS011;7755;52.208;6.964;2022-12-29T01:22:18;2.10;;;2.00;;
15307;SDS011;7755;52.208;6.964;2022-12-29T01:26:23;1.93;;;1.83;;
15307;SDS011;7755;52.208;6.964;2022-12-29T01:30:27;1.80;;;1.70;;
15307;SDS011;7755;52.208;6.964;2022-12-29T01:34:29;1.50;;;1.40;;
15307;SDS011;7755;52.208;6.964;2022-12-29T01:38:33;1.20;;;1.20;;
15307;SDS011;7755;52.208;6.964;2022-12-29T01:42:38;1.30;;;1.30;;
15307;SDS011;7755;52.208;6.964;2022-12-29T01:46:42;1.40;;;1.40;;
15307;SDS011;7755;52.208;6.964;2022-12-29T01:50:51;1.80;;;1.50;;
15307;SDS011;7755;52.208;6.964;2022-12-29T01:54:55;1.80;;;1.70;;
15307;SDS011;7755;52.208;6.964;2022-12-29T01:59:02;1.90;;;1.80;;
15307;SDS011;7755;52.208;6.964;2022-12-29T02:03:11;2.33;;;2.10;;
15307;SDS011;7755;52.208;6.964;2022-12-29T02:07:17;2.07;;;1.97;;
15307;SDS011;7755;52.208;6.964;2022-12-29T02:11:21;2.20;;;2.00;;
15307;SDS011;7755;52.208;6.964;2022-12-29T02:15:31;2.10;;;2.00;;
15307;SDS011;7755;52.208;6.964;2022-12-29T02:19:50;2.30;;;2.20;;
15307;SDS011;7755;52.208;6.964;2022-12-29T02:29:21;2.33;;;2.20;;
15307;SDS011;7755;52.208;6.964;2022-12-29T02:33:50;2.43;;;2.33;;
15307;SDS011;7755;52.208;6.964;2022-12-29T02:38:09;2.80;;;2.67;;
15307;SDS011;7755;52.208;6.964;2022-12-29T02:42:23;2.63;;;2.50;;
15307;SDS011;7755;52.208;6.964;2022-12-29T02:46:34;2.33;;;2.23;;
15307;SDS011;7755;52.208;6.964;2022-12-29T02:50:43;2.30;;;2.20;;
15307;SDS011;7755;52.208;6.964;2022-12-29T02:54:52;2.17;;;2.07;;
15307;SDS011;7755;52.208;6.964;2022-12-29T02:58:56;2.27;;;2.00;;
15307;SDS011;7755;52.208;6.964;2022-12-29T03:07:25;1.77;;;1.67;;
15307;SDS011;7755;52.208;6.964;2022-12-29T03:11:38;2.00;;;1.67;;
15307;SDS011;7755;52.208;6.964;2022-12-29T03:16:05;1.77;;;1.63;;
15307;SDS011;7755;52.208;6.964;2022-12-29T03:20:18;1.60;;;1.50;;
15307;SDS011;7755;52.208;6.964;2022-12-29T03:24:31;1.40;;;1.40;;
15307;SDS011;7755;52.208;6.964;2022-12-29T03:28:37;1.93;;;1.57;;
15307;SDS011;7755;52.208;6.964;2022-12-29T03:32:44;1.60;;;1.30;;
15307;SDS011;7755;52.208;6.964;2022-12-29T03:36:52;1.77;;;1.57;;
15307;SDS011;7755;52.208;6.964;2022-12-29T03:41:05;2.07;;;1.60;;
15307;SDS011;7755;52.208;6.964;2022-12-29T03:45:13;3.43;;;1.77;;
15307;SDS011;7755;52.208;6.964;2022-12-29T03:49:17;1.53;;;1.40;;
15307;SDS011;7755;52.208;6.964;2022-12-29T03:53:20;2.60;;;1.70;;
15307;SDS011;7755;52.208;6.964;2022-12-29T03:57:25;1.47;;;1.37;;
15307;SDS011;7755;52.208;6.964;2022-12-29T04:01:33;2.97;;;1.47;;
15307;SDS011;7755;52.208;6.964;2022-12-29T04:05:37;1.90;;;1.60;;
15307;SDS011;7755;52.208;6.964;2022-12-29T04:09:40;1.30;;;1.13;;
15307;SDS011;7755;52.208;6.964;2022-12-29T04:13:49;1.77;;;1.30;;
15307;SDS011;7755;52.208;6.964;2022-12-29T04:17:55;2.57;;;1.77;;
15307;SDS011;7755;52.208;6.964;2022-12-29T04:21:58;1.53;;;1.43;;
15307;SDS011;7755;52.208;6.964;2022-12-29T04:26:02;1.60;;;1.50;;
15307;SDS011;7755;52.208;6.964;2022-12-29T04:30:13;1.80;;;1.70;;
15307;SDS011;7755;52.208;6.964;2022-12-29T04:34:53;1.40;;;1.27;;
15307;SDS011;7755;52.208;6.964;2022-12-29T04:38:57;1.40;;;1.30;;
15307;SDS011;7755;52.208;6.964;2022-12-29T04:43:01;1.60;;;1.50;;
15307;SDS011;7755;52.208;6.964;2022-12-29T04:47:08;1.60;;;1.50;;
15307;SDS011;7755;52.208;6.964;2022-12-29T04:51:37;1.83;;;1.50;;
15307;SDS011;7755;52.208;6.964;2022-12-29T04:55:43;2.87;;;1.87;;
15307;SDS011;7755;52.208;6.964;2022-12-29T04:59:47;1.67;;;1.57;;
15307;SDS011;7755;52.208;6.964;2022-12-29T05:03:51;2.57;;;1.40;;
15307;SDS011;7755;52.208;6.964;2022-12-29T05:07:54;2.03;;;1.40;;
15307;SDS011;7755;52.208;6.964;2022-12-29T05:11:58;1.30;;;1.30;;
15307;SDS011;7755;52.208;6.964;2022-12-29T05:16:01;1.47;;;1.37;;
15307;SDS011;7755;52.208;6.964;2022-12-29T05:20:06;2.27;;;1.60;;
15307;SDS011;7755;52.208;6.964;2022-12-29T05:24:11;1.97;;;1.50;;
15307;SDS011;7755;52.208;6.964;2022-12-29T05:28:15;1.70;;;1.60;;
15307;SDS011;7755;52.208;6.964;2022-12-29T05:32:31;3.07;;;1.80;;
15307;SDS011;7755;52.208;6.964;2022-12-29T05:36:36;1.57;;;1.40;;
15307;SDS011;7755;52.208;6.964;2022-12-29T05:40:42;1.87;;;1.73;;
15307;SDS011;7755;52.208;6.964;2022-12-29T05:44:57;1.83;;;1.40;;
15307;SDS011;7755;52.208;6.964;2022-12-29T05:49:38;2.47;;;1.53;;
15307;SDS011;7755;52.208;6.964;2022-12-29T05:53:45;2.57;;;1.90;;
15307;SDS011;7755;52.208;6.964;2022-12-29T05:57:49;2.43;;;1.40;;
15307;SDS011;7755;52.208;6.964;2022-12-29T06:01:53;3.77;;;2.00;;
15307;SDS011;7755;52.208;6.964;2022-12-29T06:05:56;8.73;;;5.97;;
15307;SDS011;7755;52.208;6.964;2022-12-29T06:10:02;5.07;;;3.60;;
15307;SDS011;7755;52.208;6.964;2022-12-29T06:14:10;4.30;;;3.77;;
15307;SDS011;7755;52.208;6.964;2022-12-29T06:18:13;5.73;;;2.37;;
15307;SDS011;7755;52.208;6.964;2022-12-29T06:22:21;3.47;;;2.90;;
15307;SDS011;7755;52.208;6.964;2022-12-29T06:26:26;3.13;;;2.17;;
15307;SDS011;7755;52.208;6.964;2022-12-29T06:30:31;2.70;;;2.50;;
15307;SDS011;7755;52.208;6.964;2022-12-29T06:34:36;3.63;;;2.30;;
15307;SDS011;7755;52.208;6.964;2022-12-29T06:38:39;3.43;;;2.10;;
15307;SDS011;7755;52.208;6.964;2022-12-29T06:42:43;3.73;;;2.53;;
15307;SDS011;7755;52.208;6.964;2022-12-29T06:47:06;6.40;;;2.37;;
15307;SDS011;7755;52.208;6.964;2022-12-29T06:51:09;4.33;;;2.47;;
15307;SDS011;7755;52.208;6.964;2022-12-29T06:55:12;3.40;;;2.50;;
15307;SDS011;7755;52.208;6.964;2022-12-29T06:59:16;5.57;;;2.40;;
15307;SDS011;7755;52.208;6.964;2022-12-29T07:03:20;2.90;;;2.30;;
15307;SDS011;7755;52.208;6.964;2022-12-29T07:07:23;4.50;;;2.40;;
15307;SDS011;7755;52.208;6.964;2022-12-29T07:11:26;3.47;;;2.30;;
15307;SDS011;7755;52.208;6.964;2022-12-29T07:15:30;2.07;;;1.77;;
15307;SDS011;7755;52.208;6.964;2022-12-29T07:19:33;3.37;;;2.03;;
15307;SDS011;7755;52.208;6.964;2022-12-29T07:23:37;7.37;;;2.33;;
15307;SDS011;7755;52.208;6.964;2022-12-29T07:27:40;6.23;;;2.13;;
15307;SDS011;7755;52.208;6.964;2022-12-29T07:31:44;3.10;;;2.57;;
15307;SDS011;7755;52.208;6.964;2022-12-29T07:35:47;4.20;;;2.00;;
15307;SDS011;7755;52.208;6.964;2022-12-29T07:39:50;3.93;;;2.10;;
15307;SDS011;7755;52.208;6.964;2022-12-29T07:43:53;4.00;;;2.07;;
15307;SDS011;7755;52.208;6.964;2022-12-29T07:48:26;5.47;;;2.03;;
15307;SDS011;7755;52.208;6.964;2022-12-29T07:52:31;3.70;;;1.77;;
15307;SDS011;7755;52.208;6.964;2022-12-29T07:56:34;3.77;;;2.10;;
15307;SDS011;7755;52.208;6.964;2022-12-29T08:00:37;5.03;;;2.00;;
15307;SDS011;7755;52.208;6.964;2022-12-29T08:04:42;4.63;;;1.97;;
15307;SDS011;7755;52.208;6.964;2022-12-29T08:08:45;4.40;;;2.10;;
15307;SDS011;7755;52.208;6.964;2022-12-29T08:12:48;2.33;;;1.80;;
15307;SDS011;7755;52.208;6.964;2022-12-29T08:16:51;3.20;;;1.83;;
15307;SDS011;7755;52.208;6.964;2022-12-29T08:20:56;2.60;;;1.87;;
15307;SDS011;7755;52.208;6.964;2022-12-29T08:25:04;5.37;;;1.83;;
15307;SDS011;7755;52.208;6.964;2022-12-29T08:29:07;3.80;;;1.90;;
15307;SDS011;7755;52.208;6.964;2022-12-29T08:33:11;3.30;;;1.80;;
15307;SDS011;7755;52.208;6.964;2022-12-29T08:37:15;3.63;;;2.03;;
15307;SDS011;7755;52.208;6.964;2022-12-29T08:41:18;3.00;;;1.93;;
15307;SDS011;7755;52.208;6.964;2022-12-29T08:45:21;1.80;;;1.70;;
15307;SDS011;7755;52.208;6.964;2022-12-29T08:49:24;4.80;;;1.90;;
15307;SDS011;7755;52.208;6.964;2022-12-29T08:53:29;4.20;;;2.40;;
15307;SDS011;7755;52.208;6.964;2022-12-29T08:57:32;6.23;;;2.40;;
15307;SDS011;7755;52.208;6.964;2022-12-29T09:01:44;5.00;;;2.23;;
15307;SDS011;7755;52.208;6.964;2022-12-29T09:05:47;4.90;;;2.30;;
15307;SDS011;7755;52.208;6.964;2022-12-29T09:09:53;8.80;;;3.63;;
15307;SDS011;7755;52.208;6.964;2022-12-29T09:13:56;5.73;;;2.23;;
15307;SDS011;7755;52.208;6.964;2022-12-29T09:17:59;5.53;;;2.30;;
15307;SDS011;7755;52.208;6.964;2022-12-29T09:22:02;3.43;;;2.00;;
15307;SDS011;7755;52.208;6.964;2022-12-29T09:26:07;6.10;;;2.50;;
15307;SDS011;7755;52.208;6.964;2022-12-29T09:30:11;5.73;;;3.30;;
15307;SDS011;7755;52.208;6.964;2022-12-29T09:34:16;5.47;;;2.30;;
15307;SDS011;7755;52.208;6.964;2022-12-29T09:38:19;6.60;;;2.53;;
15307;SDS011;7755;52.208;6.964;2022-12-29T09:42:25;4.37;;;2.00;;
15307;SDS011;7755;52.208;6.964;2022-12-29T09:46:34;7.53;;;2.33;;
15307;SDS011;7755;52.208;6.964;2022-12-29T09:50:40;9.47;;;2.87;;
15307;SDS011;7755;52.208;6.964;2022-12-29T09:54:51;6.37;;;2.53;;
15307;SDS011;7755;52.208;6.964;2022-12-29T09:59:08;6.20;;;2.50;;
15307;SDS011;7755;52.208;6.964;2022-12-29T10:03:17;6.67;;;2.50;;
15307;SDS011;7755;52.208;6.964;2022-12-29T10:07:26;5.10;;;2.90;;
15307;SDS011;7755;52.208;6.964;2022-12-29T10:11:41;7.67;;;2.50;;
15307;SDS011;7755;52.208;6.964;2022-12-29T10:16:05;4.67;;;2.43;;
15307;SDS011;7755;52.208;6.964;2022-12-29T10:20:23;4.20;;;2.67;;
15307;SDS011;7755;52.208;6.964;2022-12-29T10:24:31;5.20;;;2.47;;
15307;SDS011;7755;52.208;6.964;2022-12-29T10:28:42;5.00;;;2.33;;
15307;SDS011;7755;52.208;6.964;2022-12-29T10:32:50;6.00;;;2.97;;
15307;SDS011;7755;52.208;6.964;2022-12-29T10:36:58;7.67;;;3.07;;
15307;SDS011;7755;52.208;6.964;2022-12-29T10:41:05;4.87;;;2.97;;
15307;SDS011;7755;52.208;6.964;2022-12-29T10:45:16;7.53;;;2.67;;
15307;SDS011;7755;52.208;6.964;2022-12-29T10:49:23;6.03;;;2.57;;
15307;SDS011;7755;52.208;6.964;2022-12-29T11:02:40;6.33;;;2.83;;
15307;SDS011;7755;52.208;6.964;2022-12-29T11:39:16;4.40;;;2.37;;
15307;SDS011;7755;52.208;6.964;2022-12-29T11:43:34;3.73;;;2.63;;
15307;SDS011;7755;52.208;6.964;2022-12-29T11:47:41;6.33;;;3.20;;
15307;SDS011;7755;52.208;6.964;2022-12-29T11:51:46;5.23;;;3.10;;
15307;SDS011;7755;52.208;6.964;2022-12-29T11:55:52;4.57;;;3.70;;
15307;SDS011;7755;52.208;6.964;2022-12-29T11:59:59;2.90;;;2.57;;
15307;SDS011;7755;52.208;6.964;2022-12-29T12:08:37;3.00;;;2.33;;
15307;SDS011;7755;52.208;6.964;2022-12-29T12:12:48;4.37;;;2.40;;
15307;SDS011;7755;52.208;6.964;2022-12-29T12:16:57;7.20;;;3.40;;
15307;SDS011;7755;52.208;6.964;2022-12-29T12:21:05;8.67;;;4.57;;
15307;SDS011;7755;52.208;6.964;2022-12-29T12:25:16;6.33;;;3.20;;
15307;SDS011;7755;52.208;6.964;2022-12-29T12:29:24;6.43;;;3.23;;
15307;SDS011;7755;52.208;6.964;2022-12-29T12:33:36;7.77;;;4.70;;
15307;SDS011;7755;52.208;6.964;2022-12-29T12:37:52;9.03;;;5.43;;
15307;SDS011;7755;52.208;6.964;2022-12-29T12:42:25;6.50;;;3.47;;
15307;SDS011;7755;52.208;6.964;2022-12-29T12:51:28;7.57;;;3.77;;
15307;SDS011;7755;52.208;6.964;2022-12-29T12:55:41;12.77;;;4.97;;
15307;SDS011;7755;52.208;6.964;2022-12-29T12:59:59;7.30;;;4.57;;
15307;SDS011;7755;52.208;6.964;2022-12-29T13:04:20;6.90;;;3.73;;
15307;SDS011;7755;52.208;6.964;2022-12-29T13:08:44;6.00;;;3.60;;
15307;SDS011;7755;52.208;6.964;2022-12-29T13:13:01;6.60;;;4.03;;
15307;SDS011;7755;52.208;6.964;2022-12-29T13:17:21;8.67;;;4.80;;
15307;SDS011;7755;52.208;6.964;2022-12-29T13:21:39;11.97;;;5.87;;
15307;SDS011;7755;52.208;6.964;2022-12-29T13:26:08;7.47;;;4.43;;
15307;SDS011;7755;52.208;6.964;2022-12-29T13:30:28;9.10;;;4.10;;
15307;SDS011;7755;52.208;6.964;2022-12-29T13:34:38;6.83;;;3.37;;
15307;SDS011;7755;52.208;6.964;2022-12-29T13:38:51;8.37;;;4.20;;
15307;SDS011;7755;52.208;6.964;2022-12-29T13:43:05;5.93;;;4.23;;
15307;SDS011;7755;52.208;6.964;2022-12-29T13:47:13;7.67;;;4.10;;
15307;SDS011;7755;52.208;6.964;2022-12-29T13:51:23;5.73;;;4.30;;
15307;SDS011;7755;52.208;6.964;2022-12-29T13:55:31;7.37;;;4.33;;
15307;SDS011;7755;52.208;6.964;2022-12-29T13:59:40;7.80;;;4.23;;
15307;SDS011;7755;52.208;6.964;2022-12-29T14:03:51;8.63;;;4.40;;
15307;SDS011;7755;52.208;6.964;2022-12-29T14:08:00;8.43;;;5.07;;
15307;SDS011;7755;52.208;6.964;2022-12-29T14:12:17;6.90;;;4.30;;
15307;SDS011;7755;52.208;6.964;2022-12-29T14:16:36;9.43;;;4.03;;
15307;SDS011;7755;52.208;6.964;2022-12-29T14:20:53;9.47;;;5.47;;
15307;SDS011;7755;52.208;6.964;2022-12-29T14:24:58;9.63;;;4.37;;
15307;SDS011;7755;52.208;6.964;2022-12-29T14:34:07;6.63;;;3.80;;
15307;SDS011;7755;52.208;6.964;2022-12-29T14:38:33;5.70;;;5.10;;
15307;SDS011;7755;52.208;6.964;2022-12-29T14:42:48;9.93;;;5.10;;
15307;SDS011;7755;52.208;6.964;2022-12-29T14:46:57;8.73;;;4.83;;
15307;SDS011;7755;52.208;6.964;2022-12-29T14:51:19;6.87;;;4.27;;
15307;SDS011;7755;52.208;6.964;2022-12-29T14:55:39;7.97;;;4.90;;
15307;SDS011;7755;52.208;6.964;2022-12-29T14:59:44;11.03;;;4.10;;
15307;SDS011;7755;52.208;6.964;2022-12-29T15:03:48;6.97;;;4.40;;
15307;SDS011;7755;52.208;6.964;2022-12-29T15:08:00;5.93;;;4.13;;
15307;SDS011;7755;52.208;6.964;2022-12-29T15:12:19;6.07;;;4.57;;
15307;SDS011;7755;52.208;6.964;2022-12-29T15:16:32;5.93;;;3.67;;
15307;SDS011;7755;52.208;6.964;2022-12-29T15:20:38;12.27;;;5.03;;
15307;SDS011;7755;52.208;6.964;2022-12-29T15:24:43;5.53;;;3.13;;
15307;SDS011;7755;52.208;6.964;2022-12-29T15:28:47;7.67;;;3.20;;
15307;SDS011;7755;52.208;6.964;2022-12-29T15:32:51;9.77;;;7.67;;
15307;SDS011;7755;52.208;6.964;2022-12-29T15:36:55;5.60;;;4.20;;
15307;SDS011;7755;52.208;6.964;2022-12-29T15:41:00;6.50;;;4.23;;
15307;SDS011;7755;52.208;6.964;2022-12-29T15:45:08;6.27;;;3.37;;
15307;SDS011;7755;52.208;6.964;2022-12-29T15:49:15;5.50;;;3.13;;
15307;SDS011;7755;52.208;6.964;2022-12-29T15:53:20;4.97;;;4.60;;
15307;SDS011;7755;52.208;6.964;2022-12-29T15:57:35;15.07;;;12.97;;
15307;SDS011;7755;52.208;6.964;2022-12-29T16:01:51;6.27;;;4.57;;
15307;SDS011;7755;52.208;6.964;2022-12-29T16:05:57;5.87;;;3.27;;
15307;SDS011;7755;52.208;6.964;2022-12-29T16:10:21;4.37;;;3.33;;
15307;SDS011;7755;52.208;6.964;2022-12-29T16:14:32;4.20;;;3.03;;
15307;SDS011;7755;52.208;6.964;2022-12-29T16:18:37;6.17;;;3.70;;
15307;SDS011;7755;52.208;6.964;2022-12-29T16:22:41;6.10;;;3.23;;
15307;SDS011;7755;52.208;6.964;2022-12-29T16:26:50;4.60;;;3.00;;
15307;SDS011;7755;52.208;6.964;2022-12-29T16:31:03;4.20;;;3.40;;
15307;SDS011;7755;52.208;6.964;2022-12-29T16:35:10;6.27;;;3.50;;
15307;SDS011;7755;52.208;6.964;2022-12-29T16:39:19;3.47;;;2.80;;
15307;SDS011;7755;52.208;6.964;2022-12-29T16:43:35;5.80;;;3.23;;
15307;SDS011;7755;52.208;6.964;2022-12-29T16:47:46;3.80;;;3.10;;
15307;SDS011;7755;52.208;6.964;2022-12-29T16:51:54;4.77;;;2.70;;
15307;SDS011;7755;52.208;6.964;2022-12-29T16:56:00;15.13;;;10.70;;
15307;SDS011;7755;52.208;6.964;2022-12-29T17:00:17;6.43;;;3.63;;
15307;SDS011;7755;52.208;6.964;2022-12-29T17:04:23;7.43;;;3.50;;
15307;SDS011;7755;52.208;6.964;2022-12-29T17:08:26;4.30;;;2.70;;
15307;SDS011;7755;52.208;6.964;2022-12-29T17:12:29;8.87;;;3.60;;
15307;SDS011;7755;52.208;6.964;2022-12-29T17:16:34;5.23;;;3.30;;
15307;SDS011;7755;52.208;6.964;2022-12-29T17:20:39;7.70;;;4.07;;
15307;SDS011;7755;52.208;6.964;2022-12-29T17:24:42;6.93;;;3.17;;
15307;SDS011;7755;52.208;6.964;2022-12-29T17:28:45;5.37;;;2.90;;
15307;SDS011;7755;52.208;6.964;2022-12-29T17:32:50;5.73;;;3.33;;
15307;SDS011;7755;52.208;6.964;2022-12-29T17:36:56;4.07;;;2.63;;
15307;SDS011;7755;52.208;6.964;2022-12-29T17:40:59;3.53;;;2.50;;
15307;SDS011;7755;52.208;6.964;2022-12-29T17:45:04;5.47;;;3.00;;
15307;SDS011;7755;52.208;6.964;2022-12-29T17:49:09;3.33;;;2.63;;
15307;SDS011;7755;52.208;6.964;2022-12-29T17:53:18;5.13;;;3.27;;
15307;SDS011;7755;52.208;6.964;2022-12-29T17:57:24;3.67;;;2.50;;
15307;SDS011;7755;52.208;6.964;2022-12-29T18:01:28;6.90;;;2.83;;
15307;SDS011;7755;52.208;6.964;2022-12-29T18:05:50;5.60;;;2.70;;
15307;SDS011;7755;52.208;6.964;2022-12-29T18:09:55;5.67;;;2.90;;
15307;SDS011;7755;52.208;6.964;2022-12-29T18:13:58;6.30;;;2.67;;
15307;SDS011;7755;52.208;6.964;2022-12-29T18:18:05;2.87;;;2.27;;
15307;SDS011;7755;52.208;6.964;2022-12-29T18:22:12;4.00;;;3.00;;
15307;SDS011;7755;52.208;6.964;2022-12-29T18:26:19;5.60;;;2.80;;
15307;SDS011;7755;52.208;6.964;2022-12-29T18:30:29;2.90;;;2.70;;
15307;SDS011;7755;52.208;6.964;2022-12-29T18:34:33;5.10;;;3.83;;
15307;SDS011;7755;52.208;6.964;2022-12-29T18:38:36;6.47;;;4.23;;
15307;SDS011;7755;52.208;6.964;2022-12-29T18:42:41;7.53;;;3.90;;
15307;SDS011;7755;52.208;6.964;2022-12-29T18:46:44;5.57;;;3.67;;
15307;SDS011;7755;52.208;6.964;2022-12-29T18:50:47;3.73;;;3.37;;
15307;SDS011;7755;52.208;6.964;2022-12-29T18:54:52;7.17;;;3.67;;
15307;SDS011;7755;52.208;6.964;2022-12-29T18:58:57;6.97;;;3.77;;
15307;SDS011;7755;52.208;6.964;2022-12-29T19:02:59;5.03;;;3.40;;
15307;SDS011;7755;52.208;6.964;2022-12-29T19:07:02;7.57;;;3.70;;
15307;SDS011;7755;52.208;6.964;2022-12-29T19:11:06;4.83;;;2.90;;
15307;SDS011;7755;52.208;6.964;2022-12-29T19:15:15;8.30;;;3.83;;
15307;SDS011;7755;52.208;6.964;2022-12-29T19:19:23;6.77;;;3.77;;
15307;SDS011;7755;52.208;6.964;2022-12-29T19:23:26;7.30;;;6.03;;
15307;SDS011;7755;52.208;6.964;2022-12-29T19:27:28;8.73;;;7.03;;
15307;SDS011;7755;52.208;6.964;2022-12-29T19:31:35;8.83;;;4.00;;
15307;SDS011;7755;52.208;6.964;2022-12-29T19:35:39;9.43;;;6.60;;
15307;SDS011;7755;52.208;6.964;2022-12-29T19:39:43;9.90;;;5.63;;
15307;SDS011;7755;52.208;6.964;2022-12-29T19:43:48;4.57;;;3.23;;
15307;SDS011;7755;52.208;6.964;2022-12-29T19:47:53;5.13;;;3.47;;
15307;SDS011;7755;52.208;6.964;2022-12-29T19:51:57;6.80;;;5.17;;
15307;SDS011;7755;52.208;6.964;2022-12-29T19:56:00;9.57;;;4.00;;
15307;SDS011;7755;52.208;6.964;2022-12-29T20:00:06;5.33;;;3.93;;
15307;SDS011;7755;52.208;6.964;2022-12-29T20:04:15;6.23;;;4.17;;
15307;SDS011;7755;52.208;6.964;2022-12-29T20:08:19;7.33;;;4.20;;
15307;SDS011;7755;52.208;6.964;2022-12-29T20:12:22;9.73;;;4.13;;
15307;SDS011;7755;52.208;6.964;2022-12-29T20:16:30;6.20;;;3.40;;
15307;SDS011;7755;52.208;6.964;2022-12-29T20:20:36;9.43;;;3.70;;
15307;SDS011;7755;52.208;6.964;2022-12-29T20:24:39;6.37;;;3.80;;
15307;SDS011;7755;52.208;6.964;2022-12-29T20:28:50;6.90;;;3.70;;
15307;SDS011;7755;52.208;6.964;2022-12-29T20:32:53;9.60;;;4.80;;
15307;SDS011;7755;52.208;6.964;2022-12-29T20:36:58;7.03;;;4.07;;
15307;SDS011;7755;52.208;6.964;2022-12-29T20:41:01;7.00;;;4.13;;
15307;SDS011;7755;52.208;6.964;2022-12-29T20:45:04;8.97;;;3.93;;
15307;SDS011;7755;52.208;6.964;2022-12-29T20:49:09;13.83;;;5.93;;
15307;SDS011;7755;52.208;6.964;2022-12-29T20:53:13;16.57;;;8.53;;
15307;SDS011;7755;52.208;6.964;2022-12-29T20:57:16;16.33;;;5.47;;
15307;SDS011;7755;52.208;6.964;2022-12-29T21:01:21;10.00;;;6.63;;
15307;SDS011;7755;52.208;6.964;2022-12-29T21:05:38;9.17;;;4.47;;
15307;SDS011;7755;52.208;6.964;2022-12-29T21:09:43;9.93;;;6.60;;
15307;SDS011;7755;52.208;6.964;2022-12-29T21:13:46;11.17;;;5.43;;
15307;SDS011;7755;52.208;6.964;2022-12-29T21:17:50;10.93;;;4.40;;
15307;SDS011;7755;52.208;6.964;2022-12-29T21:21:53;11.10;;;4.37;;
15307;SDS011;7755;52.208;6.964;2022-12-29T21:25:57;11.60;;;6.37;;
15307;SDS011;7755;52.208;6.964;2022-12-29T21:30:00;15.37;;;7.33;;
15307;SDS011;7755;52.208;6.964;2022-12-29T21:34:04;16.60;;;8.40;;
15307;SDS011;7755;52.208;6.964;2022-12-29T21:38:07;12.50;;;5.90;;
15307;SDS011;7755;52.208;6.964;2022-12-29T21:42:13;11.83;;;6.97;;
15307;SDS011;7755;52.208;6.964;2022-12-29T21:46:16;17.60;;;7.90;;
15307;SDS011;7755;52.208;6.964;2022-12-29T21:50:19;15.37;;;7.33;;
15307;SDS011;7755;52.208;6.964;2022-12-29T21:54:23;11.53;;;5.73;;
15307;SDS011;7755;52.208;6.964;2022-12-29T21:58:47;14.90;;;6.90;;
15307;SDS011;7755;52.208;6.964;2022-12-29T22:03:09;12.03;;;6.20;;
15307;SDS011;7755;52.208;6.964;2022-12-29T22:07:29;15.03;;;7.23;;
15307;SDS011;7755;52.208;6.964;2022-12-29T22:11:50;14.40;;;6.70;;
15307;SDS011;7755;52.208;6.964;2022-12-29T22:16:14;14.73;;;7.37;;
15307;SDS011;7755;52.208;6.964;2022-12-29T22:20:20;12.30;;;8.03;;
15307;SDS011;7755;52.208;6.964;2022-12-29T22:24:26;12.30;;;9.30;;
15307;SDS011;7755;52.208;6.964;2022-12-29T22:28:30;12.43;;;7.77;;
15307;SDS011;7755;52.208;6.964;2022-12-29T22:32:36;27.73;;;17.40;;
15307;SDS011;7755;52.208;6.964;2022-12-29T22:36:39;14.77;;;8.87;;
15307;SDS011;7755;52.208;6.964;2022-12-29T22:40:42;14.77;;;7.67;;
15307;SDS011;7755;52.208;6.964;2022-12-29T22:44:45;11.37;;;6.83;;
15307;SDS011;7755;52.208;6.964;2022-12-29T22:48:50;10.20;;;5.60;;
15307;SDS011;7755;52.208;6.964;2022-12-29T22:53:10;12.50;;;6.07;;
15307;SDS011;7755;52.208;6.964;2022-12-29T22:57:30;13.00;;;5.73;;
15307;SDS011;7755;52.208;6.964;2022-12-29T23:10:21;13.07;;;5.83;;
15307;SDS011;7755;52.208;6.964;2022-12-29T23:14:24;14.43;;;6.23;;
15307;SDS011;7755;52.208;6.964;2022-12-29T23:18:33;8.63;;;4.00;;
15307;SDS011;7755;52.208;6.964;2022-12-29T23:22:42;12.33;;;5.13;;
15307;SDS011;7755;52.208;6.964;2022-12-29T23:26:56;7.87;;;4.90;;
15307;SDS011;7755;52.208;6.964;2022-12-29T23:31:05;8.60;;;4.60;;
15307;SDS011;7755;52.208;6.964;2022-12-29T23:35:14;13.90;;;4.53;;
15307;SDS011;7755;52.208;6.964;2022-12-29T23:39:21;11.20;;;4.60;;
15307;SDS011;7755;52.208;6.964;2022-12-29T23:52:22;11.53;;;5.07;;
15307;SDS011;7755;52.208;6.964;2022-12-29T23:56:28;8.60;;;4.47;;
